sensor_id;sensor_type;location;lat;lon;timestamp;temperature;humidity
14749;DHT22;7466;53.574;9.976;2023-11-22T00:00:58;2.50;99.90
14749;DHT22;7466;53.574;9.976;2023-11-22T00:03:24;2.40;99.90
14749;DHT22;7466;53.574;9.976;2023-11-22T00:05:53;2.40;99.90
14749;DHT22;7466;53.574;9.976;2023-11-22T00:08:19;2.40;99.90
14749;DHT22;7466;53.574;9.976;2023-11-22T00:10:46;2.40;99.90
14749;DHT22;7466;53.574;9.976;2023-11-22T00:13:13;2.30;99.90
14749;DHT22;7466;53.574;9.976;2023-11-22T00:15:39;2.30;99.90
14749;DHT22;7466;53.574;9.976;2023-11-22T00:18:06;2.30;99.90
14749;DHT22;7466;53.574;9.976;2023-11-22T00:20:33;2.20;99.90
14749;DHT22;7466;53.574;9.976;2023-11-22T00:23:01;2.20;99.90
14749;DHT22;7466;53.574;9.976;2023-11-22T00:25:29;2.10;99.90
14749;DHT22;7466;53.574;9.976;2023-11-22T00:27:55;2.10;99.90
14749;DHT22;7466;53.574;9.976;2023-11-22T00:30:22;2.10;99.90
14749;DHT22;7466;53.574;9.976;2023-11-22T00:32:49;2.10;99.90
14749;DHT22;7466;53.574;9.976;2023-11-22T00:35:16;2.00;99.90
14749;DHT22;7466;53.574;9.976;2023-11-22T00:37:43;2.10;99.90
14749;DHT22;7466;53.574;9.976;2023-11-22T00:40:12;2.10;99.90
14749;DHT22;7466;53.574;9.976;2023-11-22T00:42:39;2.00;99.90
14749;DHT22;7466;53.574;9.976;2023-11-22T00:45:08;2.00;99.90
14749;DHT22;7466;53.574;9.976;2023-11-22T00:47:36;1.90;99.90
14749;DHT22;7466;53.574;9.976;2023-11-22T00:50:03;1.90;99.90
14749;DHT22;7466;53.574;9.976;2023-11-22T00:52:30;1.90;99.90
14749;DHT22;7466;53.574;9.976;2023-11-22T00:54:57;1.80;99.90
14749;DHT22;7466;53.574;9.976;2023-11-22T00:57:26;1.80;99.90
14749;DHT22;7466;53.574;9.976;2023-11-22T00:59:55;1.80;99.90
14749;DHT22;7466;53.574;9.976;2023-11-22T01:02:22;1.80;99.90
14749;DHT22;7466;53.574;9.976;2023-11-22T01:04:49;1.80;99.90
14749;DHT22;7466;53.574;9.976;2023-11-22T01:07:16;1.80;99.90
14749;DHT22;7466;53.574;9.976;2023-11-22T01:09:42;1.80;99.90
14749;DHT22;7466;53.574;9.976;2023-11-22T01:12:09;1.80;99.90
14749;DHT22;7466;53.574;9.976;2023-11-22T01:14:38;1.80;99.90
14749;DHT22;7466;53.574;9.976;2023-11-22T01:17:05;1.80;99.90
14749;DHT22;7466;53.574;9.976;2023-11-22T01:19:32;1.80;99.90
14749;DHT22;7466;53.574;9.976;2023-11-22T01:21:59;1.80;99.90
14749;DHT22;7466;53.574;9.976;2023-11-22T01:24:26;1.70;99.90
14749;DHT22;7466;53.574;9.976;2023-11-22T01:26:53;1.70;99.90
14749;DHT22;7466;53.574;9.976;2023-11-22T01:29:21;1.70;99.90
14749;DHT22;7466;53.574;9.976;2023-11-22T01:31:49;1.70;99.90
14749;DHT22;7466;53.574;9.976;2023-11-22T01:34:16;1.60;99.90
14749;DHT22;7466;53.574;9.976;2023-11-22T01:36:43;1.60;99.90
14749;DHT22;7466;53.574;9.976;2023-11-22T01:39:11;1.50;99.90
14749;DHT22;7466;53.574;9.976;2023-11-22T01:41:39;1.50;99.90
14749;DHT22;7466;53.574;9.976;2023-11-22T01:44:07;1.50;99.90
14749;DHT22;7466;53.574;9.976;2023-11-22T01:46:34;1.50;99.90
14749;DHT22;7466;53.574;9.976;2023-11-22T01:49:02;1.50;99.90
14749;DHT22;7466;53.574;9.976;2023-11-22T01:51:30;1.50;99.90
14749;DHT22;7466;53.574;9.976;2023-11-22T01:53:58;1.60;99.90
14749;DHT22;7466;53.574;9.976;2023-11-22T01:56:26;1.60;99.90
14749;DHT22;7466;53.574;9.976;2023-11-22T01:58:55;1.60;99.90
14749;DHT22;7466;53.574;9.976;2023-11-22T02:01:22;1.60;99.90
14749;DHT22;7466;53.574;9.976;2023-11-22T02:03:50;1.60;99.90
14749;DHT22;7466;53.574;9.976;2023-11-22T02:06:20;1.60;99.90
14749;DHT22;7466;53.574;9.976;2023-11-22T02:08:48;1.60;99.90
14749;DHT22;7466;53.574;9.976;2023-11-22T02:11:17;1.50;99.90
14749;DHT22;7466;53.574;9.976;2023-11-22T02:13:47;1.50;99.90
14749;DHT22;7466;53.574;9.976;2023-11-22T02:16:14;1.50;99.90
14749;DHT22;7466;53.574;9.976;2023-11-22T02:18:41;1.40;99.90
14749;DHT22;7466;53.574;9.976;2023-11-22T02:21:09;1.40;99.90
14749;DHT22;7466;53.574;9.976;2023-11-22T02:23:37;1.40;99.90
14749;DHT22;7466;53.574;9.976;2023-11-22T02:26:04;1.30;99.90
14749;DHT22;7466;53.574;9.976;2023-11-22T02:28:31;1.40;99.90
14749;DHT22;7466;53.574;9.976;2023-11-22T02:30:58;1.30;99.90
14749;DHT22;7466;53.574;9.976;2023-11-22T02:33:24;1.30;99.90
14749;DHT22;7466;53.574;9.976;2023-11-22T02:35:51;1.30;99.90
14749;DHT22;7466;53.574;9.976;2023-11-22T02:38:18;1.30;99.90
14749;DHT22;7466;53.574;9.976;2023-11-22T02:40:47;1.20;99.90
14749;DHT22;7466;53.574;9.976;2023-11-22T02:43:15;1.20;99.90
14749;DHT22;7466;53.574;9.976;2023-11-22T02:45:43;1.20;99.90
14749;DHT22;7466;53.574;9.976;2023-11-22T02:48:09;1.20;99.90
14749;DHT22;7466;53.574;9.976;2023-11-22T02:50:36;1.20;99.90
14749;DHT22;7466;53.574;9.976;2023-11-22T02:53:04;1.20;99.90
14749;DHT22;7466;53.574;9.976;2023-11-22T02:55:30;1.10;99.90
14749;DHT22;7466;53.574;9.976;2023-11-22T02:57:59;1.10;99.90
14749;DHT22;7466;53.574;9.976;2023-11-22T03:00:25;1.10;99.90
14749;DHT22;7466;53.574;9.976;2023-11-22T03:02:53;1.10;99.90
14749;DHT22;7466;53.574;9.976;2023-11-22T03:05:21;1.10;99.90
14749;DHT22;7466;53.574;9.976;2023-11-22T03:07:49;1.10;99.90
14749;DHT22;7466;53.574;9.976;2023-11-22T03:10:17;1.10;99.90
14749;DHT22;7466;53.574;9.976;2023-11-22T03:12:44;1.10;99.90
14749;DHT22;7466;53.574;9.976;2023-11-22T03:15:12;1.10;99.90
14749;DHT22;7466;53.574;9.976;2023-11-22T03:17:39;1.20;99.90
14749;DHT22;7466;53.574;9.976;2023-11-22T03:20:07;1.10;99.90
14749;DHT22;7466;53.574;9.976;2023-11-22T03:22:36;1.20;99.90
14749;DHT22;7466;53.574;9.976;2023-11-22T03:25:04;1.20;99.90
14749;DHT22;7466;53.574;9.976;2023-11-22T03:27:31;1.20;99.90
14749;DHT22;7466;53.574;9.976;2023-11-22T03:29:57;1.20;99.90
14749;DHT22;7466;53.574;9.976;2023-11-22T03:32:26;1.20;99.90
14749;DHT22;7466;53.574;9.976;2023-11-22T03:34:53;1.10;99.90
14749;DHT22;7466;53.574;9.976;2023-11-22T03:37:20;1.10;99.90
14749;DHT22;7466;53.574;9.976;2023-11-22T03:39:47;1.10;99.90
14749;DHT22;7466;53.574;9.976;2023-11-22T03:42:14;1.10;99.90
14749;DHT22;7466;53.574;9.976;2023-11-22T03:44:42;1.00;99.90
14749;DHT22;7466;53.574;9.976;2023-11-22T03:47:10;1.00;99.90
14749;DHT22;7466;53.574;9.976;2023-11-22T03:49:39;1.00;99.90
14749;DHT22;7466;53.574;9.976;2023-11-22T03:52:06;1.00;99.90
14749;DHT22;7466;53.574;9.976;2023-11-22T03:54:33;1.00;99.90
14749;DHT22;7466;53.574;9.976;2023-11-22T03:57:00;1.00;99.90
14749;DHT22;7466;53.574;9.976;2023-11-22T03:59:27;1.00;99.90
14749;DHT22;7466;53.574;9.976;2023-11-22T04:01:54;1.00;99.90
14749;DHT22;7466;53.574;9.976;2023-11-22T04:04:21;1.00;99.90
14749;DHT22;7466;53.574;9.976;2023-11-22T04:06:49;1.00;99.90
14749;DHT22;7466;53.574;9.976;2023-11-22T04:09:18;1.00;99.90
14749;DHT22;7466;53.574;9.976;2023-11-22T04:11:45;1.00;99.90
14749;DHT22;7466;53.574;9.976;2023-11-22T04:14:12;0.90;99.90
14749;DHT22;7466;53.574;9.976;2023-11-22T04:16:39;0.90;99.90
14749;DHT22;7466;53.574;9.976;2023-11-22T04:19:06;0.90;99.90
14749;DHT22;7466;53.574;9.976;2023-11-22T04:21:32;0.80;99.90
14749;DHT22;7466;53.574;9.976;2023-11-22T04:24:01;0.80;99.90
14749;DHT22;7466;53.574;9.976;2023-11-22T04:26:28;0.80;99.90
14749;DHT22;7466;53.574;9.976;2023-11-22T04:28:54;0.80;99.90
14749;DHT22;7466;53.574;9.976;2023-11-22T04:31:21;0.80;99.90
14749;DHT22;7466;53.574;9.976;2023-11-22T04:33:48;0.80;99.90
14749;DHT22;7466;53.574;9.976;2023-11-22T04:36:15;0.80;99.90
14749;DHT22;7466;53.574;9.976;2023-11-22T04:38:43;0.70;99.90
14749;DHT22;7466;53.574;9.976;2023-11-22T04:41:11;0.80;99.90
14749;DHT22;7466;53.574;9.976;2023-11-22T04:43:37;0.70;99.90
14749;DHT22;7466;53.574;9.976;2023-11-22T04:46:04;0.70;99.90
14749;DHT22;7466;53.574;9.976;2023-11-22T04:48:31;0.70;99.90
14749;DHT22;7466;53.574;9.976;2023-11-22T04:50:58;0.70;99.90
14749;DHT22;7466;53.574;9.976;2023-11-22T04:53:25;0.60;99.90
14749;DHT22;7466;53.574;9.976;2023-11-22T04:55:52;0.70;99.90
14749;DHT22;7466;53.574;9.976;2023-11-22T04:58:20;0.70;99.90
14749;DHT22;7466;53.574;9.976;2023-11-22T05:00:47;0.60;99.90
14749;DHT22;7466;53.574;9.976;2023-11-22T05:03:15;0.60;99.90
14749;DHT22;7466;53.574;9.976;2023-11-22T05:05:41;0.60;99.90
14749;DHT22;7466;53.574;9.976;2023-11-22T05:08:08;0.70;99.90
14749;DHT22;7466;53.574;9.976;2023-11-22T05:10:35;0.60;99.90
14749;DHT22;7466;53.574;9.976;2023-11-22T05:13:02;0.60;99.90
14749;DHT22;7466;53.574;9.976;2023-11-22T05:15:31;0.50;99.90
14749;DHT22;7466;53.574;9.976;2023-11-22T05:17:57;0.50;99.90
14749;DHT22;7466;53.574;9.976;2023-11-22T05:20:24;0.50;99.90
14749;DHT22;7466;53.574;9.976;2023-11-22T05:22:51;0.50;99.90
14749;DHT22;7466;53.574;9.976;2023-11-22T05:25:18;0.50;99.90
14749;DHT22;7466;53.574;9.976;2023-11-22T05:27:45;0.60;99.90
14749;DHT22;7466;53.574;9.976;2023-11-22T05:30:12;0.50;99.90
14749;DHT22;7466;53.574;9.976;2023-11-22T05:32:42;0.50;99.90
14749;DHT22;7466;53.574;9.976;2023-11-22T05:35:08;0.50;99.90
14749;DHT22;7466;53.574;9.976;2023-11-22T05:37:36;0.50;99.90
14749;DHT22;7466;53.574;9.976;2023-11-22T05:40:04;0.50;99.90
14749;DHT22;7466;53.574;9.976;2023-11-22T05:42:31;0.50;99.90
14749;DHT22;7466;53.574;9.976;2023-11-22T05:44:58;0.50;99.90
14749;DHT22;7466;53.574;9.976;2023-11-22T05:47:24;0.50;99.90
14749;DHT22;7466;53.574;9.976;2023-11-22T05:49:53;0.40;99.90
14749;DHT22;7466;53.574;9.976;2023-11-22T05:52:20;0.40;99.90
14749;DHT22;7466;53.574;9.976;2023-11-22T05:54:48;0.50;99.90
14749;DHT22;7466;53.574;9.976;2023-11-22T05:57:15;0.50;99.90
14749;DHT22;7466;53.574;9.976;2023-11-22T05:59:45;0.50;99.90
14749;DHT22;7466;53.574;9.976;2023-11-22T06:02:13;0.50;99.90
14749;DHT22;7466;53.574;9.976;2023-11-22T06:04:39;0.40;99.90
14749;DHT22;7466;53.574;9.976;2023-11-22T06:07:07;0.50;99.90
14749;DHT22;7466;53.574;9.976;2023-11-22T06:09:34;0.50;99.90
14749;DHT22;7466;53.574;9.976;2023-11-22T06:12:01;0.50;99.90
14749;DHT22;7466;53.574;9.976;2023-11-22T06:14:28;0.50;99.90
14749;DHT22;7466;53.574;9.976;2023-11-22T06:16:55;0.50;99.90
14749;DHT22;7466;53.574;9.976;2023-11-22T06:19:22;0.50;99.90
14749;DHT22;7466;53.574;9.976;2023-11-22T06:21:48;0.60;99.90
14749;DHT22;7466;53.574;9.976;2023-11-22T06:24:17;0.70;99.90
14749;DHT22;7466;53.574;9.976;2023-11-22T06:26:45;0.70;99.90
14749;DHT22;7466;53.574;9.976;2023-11-22T06:29:12;0.90;99.90
14749;DHT22;7466;53.574;9.976;2023-11-22T06:31:40;0.80;99.90
14749;DHT22;7466;53.574;9.976;2023-11-22T06:34:06;0.90;99.90
14749;DHT22;7466;53.574;9.976;2023-11-22T06:36:33;0.90;99.90
14749;DHT22;7466;53.574;9.976;2023-11-22T06:39:00;0.90;99.90
14749;DHT22;7466;53.574;9.976;2023-11-22T06:41:28;0.90;99.90
14749;DHT22;7466;53.574;9.976;2023-11-22T06:43:55;0.90;99.90
14749;DHT22;7466;53.574;9.976;2023-11-22T06:46:23;1.00;99.90
14749;DHT22;7466;53.574;9.976;2023-11-22T06:48:50;1.00;99.90
14749;DHT22;7466;53.574;9.976;2023-11-22T06:51:16;1.10;99.90
14749;DHT22;7466;53.574;9.976;2023-11-22T06:53:44;1.10;99.90
14749;DHT22;7466;53.574;9.976;2023-11-22T06:56:11;1.10;99.90
14749;DHT22;7466;53.574;9.976;2023-11-22T06:58:39;1.20;99.90
14749;DHT22;7466;53.574;9.976;2023-11-22T07:01:06;1.20;99.90
14749;DHT22;7466;53.574;9.976;2023-11-22T07:03:35;1.30;99.90
14749;DHT22;7466;53.574;9.976;2023-11-22T07:06:03;1.30;99.90
14749;DHT22;7466;53.574;9.976;2023-11-22T07:08:30;1.40;99.90
14749;DHT22;7466;53.574;9.976;2023-11-22T07:10:57;1.40;99.90
14749;DHT22;7466;53.574;9.976;2023-11-22T07:13:23;1.50;99.90
14749;DHT22;7466;53.574;9.976;2023-11-22T07:15:53;1.50;99.90
14749;DHT22;7466;53.574;9.976;2023-11-22T07:18:20;1.50;99.90
14749;DHT22;7466;53.574;9.976;2023-11-22T07:20:50;1.60;99.90
14749;DHT22;7466;53.574;9.976;2023-11-22T07:23:19;1.60;99.90
14749;DHT22;7466;53.574;9.976;2023-11-22T07:25:46;1.70;99.90
14749;DHT22;7466;53.574;9.976;2023-11-22T07:28:13;1.70;99.90
14749;DHT22;7466;53.574;9.976;2023-11-22T07:30:40;1.70;99.90
14749;DHT22;7466;53.574;9.976;2023-11-22T07:33:08;1.70;99.90
14749;DHT22;7466;53.574;9.976;2023-11-22T07:35:36;1.80;99.90
14749;DHT22;7466;53.574;9.976;2023-11-22T07:38:04;1.80;99.90
14749;DHT22;7466;53.574;9.976;2023-11-22T07:40:33;1.90;99.90
14749;DHT22;7466;53.574;9.976;2023-11-22T07:43:00;1.90;99.90
14749;DHT22;7466;53.574;9.976;2023-11-22T07:45:30;2.00;99.90
14749;DHT22;7466;53.574;9.976;2023-11-22T07:47:57;2.00;99.90
14749;DHT22;7466;53.574;9.976;2023-11-22T07:50:26;2.00;99.90
14749;DHT22;7466;53.574;9.976;2023-11-22T07:52:53;2.00;99.90
14749;DHT22;7466;53.574;9.976;2023-11-22T07:55:20;2.10;99.90
14749;DHT22;7466;53.574;9.976;2023-11-22T07:57:48;2.10;99.90
14749;DHT22;7466;53.574;9.976;2023-11-22T08:00:16;2.10;99.90
14749;DHT22;7466;53.574;9.976;2023-11-22T08:02:45;2.20;99.90
14749;DHT22;7466;53.574;9.976;2023-11-22T08:05:11;2.20;99.90
14749;DHT22;7466;53.574;9.976;2023-11-22T08:07:42;2.30;99.90
14749;DHT22;7466;53.574;9.976;2023-11-22T08:10:11;2.30;99.90
14749;DHT22;7466;53.574;9.976;2023-11-22T08:12:45;2.40;99.90
14749;DHT22;7466;53.574;9.976;2023-11-22T08:15:13;2.40;99.90
14749;DHT22;7466;53.574;9.976;2023-11-22T08:17:40;2.50;99.90
14749;DHT22;7466;53.574;9.976;2023-11-22T08:20:07;2.50;99.90
14749;DHT22;7466;53.574;9.976;2023-11-22T08:22:37;2.60;99.90
14749;DHT22;7466;53.574;9.976;2023-11-22T08:25:07;2.60;99.90
14749;DHT22;7466;53.574;9.976;2023-11-22T08:27:34;2.60;99.90
14749;DHT22;7466;53.574;9.976;2023-11-22T08:30:01;2.60;99.90
14749;DHT22;7466;53.574;9.976;2023-11-22T08:32:30;2.60;99.90
14749;DHT22;7466;53.574;9.976;2023-11-22T08:34:57;2.70;99.90
14749;DHT22;7466;53.574;9.976;2023-11-22T08:37:24;2.70;99.90
14749;DHT22;7466;53.574;9.976;2023-11-22T08:39:50;2.80;99.90
14749;DHT22;7466;53.574;9.976;2023-11-22T08:42:18;2.90;99.90
14749;DHT22;7466;53.574;9.976;2023-11-22T08:44:45;2.90;99.90
14749;DHT22;7466;53.574;9.976;2023-11-22T08:47:12;3.00;99.90
14749;DHT22;7466;53.574;9.976;2023-11-22T08:49:39;3.10;99.90
14749;DHT22;7466;53.574;9.976;2023-11-22T08:52:07;3.10;99.90
14749;DHT22;7466;53.574;9.976;2023-11-22T08:54:34;3.00;99.90
14749;DHT22;7466;53.574;9.976;2023-11-22T08:57:01;3.00;99.90
14749;DHT22;7466;53.574;9.976;2023-11-22T08:59:29;3.00;99.90
14749;DHT22;7466;53.574;9.976;2023-11-22T09:01:55;3.00;99.90
14749;DHT22;7466;53.574;9.976;2023-11-22T09:04:22;3.10;99.90
14749;DHT22;7466;53.574;9.976;2023-11-22T09:06:49;3.10;99.90
14749;DHT22;7466;53.574;9.976;2023-11-22T09:09:16;3.10;99.90
14749;DHT22;7466;53.574;9.976;2023-11-22T09:11:43;3.10;99.90
14749;DHT22;7466;53.574;9.976;2023-11-22T09:14:11;3.20;99.90
14749;DHT22;7466;53.574;9.976;2023-11-22T09:16:39;3.30;99.90
14749;DHT22;7466;53.574;9.976;2023-11-22T09:19:06;3.30;99.90
14749;DHT22;7466;53.574;9.976;2023-11-22T09:21:33;3.30;99.90
14749;DHT22;7466;53.574;9.976;2023-11-22T09:24:00;3.40;99.90
14749;DHT22;7466;53.574;9.976;2023-11-22T09:26:27;3.40;99.90
14749;DHT22;7466;53.574;9.976;2023-11-22T09:28:55;3.40;99.90
14749;DHT22;7466;53.574;9.976;2023-11-22T09:31:21;3.50;99.90
14749;DHT22;7466;53.574;9.976;2023-11-22T09:33:50;3.60;99.90
14749;DHT22;7466;53.574;9.976;2023-11-22T09:36:17;3.60;99.90
14749;DHT22;7466;53.574;9.976;2023-11-22T09:38:44;3.60;99.90
14749;DHT22;7466;53.574;9.976;2023-11-22T09:41:12;3.70;99.90
14749;DHT22;7466;53.574;9.976;2023-11-22T09:43:41;3.80;99.90
14749;DHT22;7466;53.574;9.976;2023-11-22T09:46:09;3.80;99.90
14749;DHT22;7466;53.574;9.976;2023-11-22T09:48:39;3.90;99.90
14749;DHT22;7466;53.574;9.976;2023-11-22T09:51:11;3.90;99.90
14749;DHT22;7466;53.574;9.976;2023-11-22T09:53:51;3.90;99.90
14749;DHT22;7466;53.574;9.976;2023-11-22T09:56:20;4.00;99.90
14749;DHT22;7466;53.574;9.976;2023-11-22T09:58:47;4.10;99.90
14749;DHT22;7466;53.574;9.976;2023-11-22T10:01:17;4.20;99.90
14749;DHT22;7466;53.574;9.976;2023-11-22T10:03:44;4.10;99.90
14749;DHT22;7466;53.574;9.976;2023-11-22T10:06:13;4.10;99.90
14749;DHT22;7466;53.574;9.976;2023-11-22T10:08:41;4.10;99.90
14749;DHT22;7466;53.574;9.976;2023-11-22T10:11:08;4.10;99.90
14749;DHT22;7466;53.574;9.976;2023-11-22T10:13:35;4.10;99.90
14749;DHT22;7466;53.574;9.976;2023-11-22T10:16:09;4.20;99.90
14749;DHT22;7466;53.574;9.976;2023-11-22T10:18:39;4.20;99.90
14749;DHT22;7466;53.574;9.976;2023-11-22T10:21:19;4.30;99.90
14749;DHT22;7466;53.574;9.976;2023-11-22T10:23:46;4.30;99.90
14749;DHT22;7466;53.574;9.976;2023-11-22T10:26:14;4.30;99.90
14749;DHT22;7466;53.574;9.976;2023-11-22T10:28:42;4.30;99.90
14749;DHT22;7466;53.574;9.976;2023-11-22T10:31:10;4.40;99.90
14749;DHT22;7466;53.574;9.976;2023-11-22T10:33:39;4.40;99.90
14749;DHT22;7466;53.574;9.976;2023-11-22T10:36:07;4.60;99.90
14749;DHT22;7466;53.574;9.976;2023-11-22T10:38:36;4.70;99.90
14749;DHT22;7466;53.574;9.976;2023-11-22T10:41:04;4.70;99.90
14749;DHT22;7466;53.574;9.976;2023-11-22T10:43:31;4.60;99.90
14749;DHT22;7466;53.574;9.976;2023-11-22T10:45:58;4.70;99.90
14749;DHT22;7466;53.574;9.976;2023-11-22T10:48:26;4.70;99.90
14749;DHT22;7466;53.574;9.976;2023-11-22T10:50:55;4.70;99.90
14749;DHT22;7466;53.574;9.976;2023-11-22T10:53:37;4.80;99.90
14749;DHT22;7466;53.574;9.976;2023-11-22T10:56:11;4.80;99.90
14749;DHT22;7466;53.574;9.976;2023-11-22T10:58:45;4.60;99.90
14749;DHT22;7466;53.574;9.976;2023-11-22T11:01:14;4.70;99.90
14749;DHT22;7466;53.574;9.976;2023-11-22T11:03:45;4.70;99.90
14749;DHT22;7466;53.574;9.976;2023-11-22T11:06:15;4.80;99.90
14749;DHT22;7466;53.574;9.976;2023-11-22T11:08:46;4.90;99.90
14749;DHT22;7466;53.574;9.976;2023-11-22T11:11:14;4.90;99.90
14749;DHT22;7466;53.574;9.976;2023-11-22T11:13:42;4.90;99.90
14749;DHT22;7466;53.574;9.976;2023-11-22T11:16:09;5.00;99.90
14749;DHT22;7466;53.574;9.976;2023-11-22T11:18:36;5.00;99.90
14749;DHT22;7466;53.574;9.976;2023-11-22T11:21:08;5.00;99.90
14749;DHT22;7466;53.574;9.976;2023-11-22T11:23:38;4.90;99.90
14749;DHT22;7466;53.574;9.976;2023-11-22T11:26:15;5.00;99.90
14749;DHT22;7466;53.574;9.976;2023-11-22T11:28:43;5.10;99.90
14749;DHT22;7466;53.574;9.976;2023-11-22T11:31:10;5.20;1.00
14749;DHT22;7466;53.574;9.976;2023-11-22T11:33:55;5.20;1.00
14749;DHT22;7466;53.574;9.976;2023-11-22T11:36:25;5.30;1.00
14749;DHT22;7466;53.574;9.976;2023-11-22T11:38:52;5.20;1.00
14749;DHT22;7466;53.574;9.976;2023-11-22T11:41:25;5.30;1.00
14749;DHT22;7466;53.574;9.976;2023-11-22T11:43:53;5.40;1.00
14749;DHT22;7466;53.574;9.976;2023-11-22T11:46:20;5.40;1.00
14749;DHT22;7466;53.574;9.976;2023-11-22T11:48:49;5.30;1.00
14749;DHT22;7466;53.574;9.976;2023-11-22T11:51:17;5.30;1.00
14749;DHT22;7466;53.574;9.976;2023-11-22T11:53:45;5.30;1.00
14749;DHT22;7466;53.574;9.976;2023-11-22T11:56:12;5.40;1.00
14749;DHT22;7466;53.574;9.976;2023-11-22T11:58:42;5.30;99.90
14749;DHT22;7466;53.574;9.976;2023-11-22T12:01:11;5.30;99.90
14749;DHT22;7466;53.574;9.976;2023-11-22T12:03:38;5.40;99.90
14749;DHT22;7466;53.574;9.976;2023-11-22T12:06:05;5.40;99.90
14749;DHT22;7466;53.574;9.976;2023-11-22T12:08:32;5.30;99.90
14749;DHT22;7466;53.574;9.976;2023-11-22T12:11:02;5.30;99.90
14749;DHT22;7466;53.574;9.976;2023-11-22T12:13:29;5.20;99.90
14749;DHT22;7466;53.574;9.976;2023-11-22T12:15:58;5.10;99.90
14749;DHT22;7466;53.574;9.976;2023-11-22T12:18:28;5.10;99.90
14749;DHT22;7466;53.574;9.976;2023-11-22T12:20:57;5.10;1.00
14749;DHT22;7466;53.574;9.976;2023-11-22T12:23:25;5.20;1.00
14749;DHT22;7466;53.574;9.976;2023-11-22T12:25:56;5.20;1.00
14749;DHT22;7466;53.574;9.976;2023-11-22T12:28:24;5.10;1.00
14749;DHT22;7466;53.574;9.976;2023-11-22T12:30:51;5.10;1.00
14749;DHT22;7466;53.574;9.976;2023-11-22T12:33:19;5.10;1.00
14749;DHT22;7466;53.574;9.976;2023-11-22T12:35:46;5.00;1.00
14749;DHT22;7466;53.574;9.976;2023-11-22T12:38:14;5.00;1.00
14749;DHT22;7466;53.574;9.976;2023-11-22T12:40:45;5.00;1.00
14749;DHT22;7466;53.574;9.976;2023-11-22T12:43:13;4.80;1.00
14749;DHT22;7466;53.574;9.976;2023-11-22T12:45:40;4.80;99.90
14749;DHT22;7466;53.574;9.976;2023-11-22T12:48:27;4.70;1.00
14749;DHT22;7466;53.574;9.976;2023-11-22T12:50:56;4.70;1.00
14749;DHT22;7466;53.574;9.976;2023-11-22T12:53:23;4.60;1.00
14749;DHT22;7466;53.574;9.976;2023-11-22T12:55:52;4.60;1.00
14749;DHT22;7466;53.574;9.976;2023-11-22T12:58:20;4.60;16.60
14749;DHT22;7466;53.574;9.976;2023-11-22T13:00:49;4.60;99.90
14749;DHT22;7466;53.574;9.976;2023-11-22T13:03:16;4.60;99.90
14749;DHT22;7466;53.574;9.976;2023-11-22T13:05:45;4.60;99.90
14749;DHT22;7466;53.574;9.976;2023-11-22T13:08:14;4.60;99.90
14749;DHT22;7466;53.574;9.976;2023-11-22T13:10:43;4.70;99.90
14749;DHT22;7466;53.574;9.976;2023-11-22T13:13:11;4.60;69.70
14749;DHT22;7466;53.574;9.976;2023-11-22T13:15:38;4.60;1.00
14749;DHT22;7466;53.574;9.976;2023-11-22T13:18:05;4.50;27.30
14749;DHT22;7466;53.574;9.976;2023-11-22T13:20:34;4.50;99.90
14749;DHT22;7466;53.574;9.976;2023-11-22T13:23:02;4.50;1.00
14749;DHT22;7466;53.574;9.976;2023-11-22T13:25:29;4.50;1.00
14749;DHT22;7466;53.574;9.976;2023-11-22T13:27:55;4.50;75.90
14749;DHT22;7466;53.574;9.976;2023-11-22T13:30:24;4.40;1.00
14749;DHT22;7466;53.574;9.976;2023-11-22T13:32:52;4.40;99.90
14749;DHT22;7466;53.574;9.976;2023-11-22T13:35:22;4.40;1.00
14749;DHT22;7466;53.574;9.976;2023-11-22T13:37:49;4.30;1.00
14749;DHT22;7466;53.574;9.976;2023-11-22T13:40:19;4.40;99.90
14749;DHT22;7466;53.574;9.976;2023-11-22T13:42:48;4.30;1.00
14749;DHT22;7466;53.574;9.976;2023-11-22T13:45:18;4.30;1.00
14749;DHT22;7466;53.574;9.976;2023-11-22T13:47:46;4.40;99.90
14749;DHT22;7466;53.574;9.976;2023-11-22T13:50:13;4.30;1.00
14749;DHT22;7466;53.574;9.976;2023-11-22T13:52:44;4.40;99.90
14749;DHT22;7466;53.574;9.976;2023-11-22T13:55:11;4.40;99.90
14749;DHT22;7466;53.574;9.976;2023-11-22T13:57:39;4.40;99.90
14749;DHT22;7466;53.574;9.976;2023-11-22T14:00:08;4.40;1.00
14749;DHT22;7466;53.574;9.976;2023-11-22T14:02:38;4.30;1.00
14749;DHT22;7466;53.574;9.976;2023-11-22T14:05:06;4.30;1.00
14749;DHT22;7466;53.574;9.976;2023-11-22T14:07:35;4.30;1.00
14749;DHT22;7466;53.574;9.976;2023-11-22T14:10:02;4.20;99.90
14749;DHT22;7466;53.574;9.976;2023-11-22T14:12:29;4.20;1.00
14749;DHT22;7466;53.574;9.976;2023-11-22T14:14:58;4.10;99.90
14749;DHT22;7466;53.574;9.976;2023-11-22T14:17:26;4.10;1.00
14749;DHT22;7466;53.574;9.976;2023-11-22T14:19:53;4.10;1.00
14749;DHT22;7466;53.574;9.976;2023-11-22T14:22:21;4.10;99.90
14749;DHT22;7466;53.574;9.976;2023-11-22T14:24:47;4.00;1.00
14749;DHT22;7466;53.574;9.976;2023-11-22T14:27:14;4.00;1.00
14749;DHT22;7466;53.574;9.976;2023-11-22T14:29:41;4.00;1.00
14749;DHT22;7466;53.574;9.976;2023-11-22T14:32:09;4.00;1.00
14749;DHT22;7466;53.574;9.976;2023-11-22T14:34:36;3.90;1.00
14749;DHT22;7466;53.574;9.976;2023-11-22T14:37:04;4.00;1.00
14749;DHT22;7466;53.574;9.976;2023-11-22T14:39:31;3.90;1.00
14749;DHT22;7466;53.574;9.976;2023-11-22T14:41:59;3.90;13.40
14749;DHT22;7466;53.574;9.976;2023-11-22T14:44:26;3.80;1.00
14749;DHT22;7466;53.574;9.976;2023-11-22T14:46:53;3.80;1.00
14749;DHT22;7466;53.574;9.976;2023-11-22T14:49:21;3.80;16.10
14749;DHT22;7466;53.574;9.976;2023-11-22T14:51:48;3.80;99.90
14749;DHT22;7466;53.574;9.976;2023-11-22T14:54:14;3.80;99.90
14749;DHT22;7466;53.574;9.976;2023-11-22T14:56:41;3.80;99.90
14749;DHT22;7466;53.574;9.976;2023-11-22T14:59:10;3.80;1.00
14749;DHT22;7466;53.574;9.976;2023-11-22T15:01:38;3.80;1.00
14749;DHT22;7466;53.574;9.976;2023-11-22T15:04:07;3.80;1.00
14749;DHT22;7466;53.574;9.976;2023-11-22T15:06:37;3.90;65.60
14749;DHT22;7466;53.574;9.976;2023-11-22T15:09:04;3.80;68.70
14749;DHT22;7466;53.574;9.976;2023-11-22T15:11:35;3.80;99.90
14749;DHT22;7466;53.574;9.976;2023-11-22T15:14:03;3.80;99.90
14749;DHT22;7466;53.574;9.976;2023-11-22T15:16:30;3.80;99.90
14749;DHT22;7466;53.574;9.976;2023-11-22T15:18:58;3.70;99.90
14749;DHT22;7466;53.574;9.976;2023-11-22T15:21:27;3.70;99.90
14749;DHT22;7466;53.574;9.976;2023-11-22T15:23:56;3.70;99.90
14749;DHT22;7466;53.574;9.976;2023-11-22T15:26:24;3.70;99.90
14749;DHT22;7466;53.574;9.976;2023-11-22T15:28:52;3.70;1.00
14749;DHT22;7466;53.574;9.976;2023-11-22T15:31:19;3.70;99.90
14749;DHT22;7466;53.574;9.976;2023-11-22T15:33:49;3.70;99.90
14749;DHT22;7466;53.574;9.976;2023-11-22T15:36:16;3.70;99.90
14749;DHT22;7466;53.574;9.976;2023-11-22T15:38:43;3.70;99.90
14749;DHT22;7466;53.574;9.976;2023-11-22T15:41:11;3.70;99.90
14749;DHT22;7466;53.574;9.976;2023-11-22T15:43:39;3.60;99.90
14749;DHT22;7466;53.574;9.976;2023-11-22T15:46:10;3.60;99.90
14749;DHT22;7466;53.574;9.976;2023-11-22T15:48:38;3.60;99.90
14749;DHT22;7466;53.574;9.976;2023-11-22T15:51:05;3.60;99.90
14749;DHT22;7466;53.574;9.976;2023-11-22T15:53:32;3.60;99.90
14749;DHT22;7466;53.574;9.976;2023-11-22T15:55:59;3.60;1.00
14749;DHT22;7466;53.574;9.976;2023-11-22T15:58:27;3.60;1.00
14749;DHT22;7466;53.574;9.976;2023-11-22T16:00:54;3.60;1.00
14749;DHT22;7466;53.574;9.976;2023-11-22T16:03:26;3.60;1.00
14749;DHT22;7466;53.574;9.976;2023-11-22T16:05:54;3.50;1.00
14749;DHT22;7466;53.574;9.976;2023-11-22T16:08:20;3.40;1.00